Time;durP1;ratioP1;P1;durP2;ratioP2;P2;SDS_P1;SDS_P2;PMS_P1;PMS_P2;Temp;Humidity;BMP_temperature;BMP_pressure;BME280_temperature;BME280_humidity;BME280_pressure;Samples;Min_cycle;Max_cycle;Signal;HPM_P1;HPM_P2
2022/11/08 00:02:01;;;;;;;3.50;2.70;;;6.80;99.90;;;;;;5024866;28;20229;-66
2022/11/08 00:04:28;;;;;;;4.32;3.05;;;6.70;99.90;;;;;;5025621;28;20212;-66
2022/11/08 00:15:10;;;;;;;3.08;2.50;;;6.50;99.90;;;;;;5025226;28;20217;-66
2022/11/08 00:17:37;;;;;;;2.33;1.85;;;6.50;99.90;;;;;;5025764;28;20214;-65
2022/11/08 00:20:04;;;;;;;2.50;2.30;;;6.40;99.90;;;;;;5025646;28;20198;-66
2022/11/08 00:22:31;;;;;;;5.75;2.95;;;6.40;99.90;;;;;;5025204;28;20266;-66
2022/11/08 00:24:58;;;;;;;2.67;2.40;;;6.40;99.90;;;;;;5025601;28;20229;-66
2022/11/08 00:27:26;;;;;;;2.83;2.17;;;6.40;99.90;;;;;;5025557;28;20862;-65
2022/11/08 00:29:53;;;;;;;2.97;2.45;;;6.40;99.90;;;;;;5025451;28;20217;-65
2022/11/08 00:32:23;;;;;;;2.70;2.42;;;6.40;99.90;;;;;;5024662;28;20198;-65
2022/11/08 00:34:50;;;;;;;3.33;2.75;;;6.30;99.90;;;;;;5027911;28;20241;-65
2022/11/08 00:37:19;;;;;;;3.05;2.20;;;6.30;99.90;;;;;;5029308;28;20225;-66
2022/11/08 00:39:46;;;;;;;3.72;2.35;;;6.30;99.90;;;;;;5028706;28;20214;-66
2022/11/08 00:42:12;;;;;;;3.38;2.35;;;6.30;99.90;;;;;;5028406;28;20214;-66
2022/11/08 00:44:39;;;;;;;3.25;2.03;;;6.20;99.90;;;;;;5027460;28;20220;-66
2022/11/08 00:47:06;;;;;;;2.92;2.45;;;6.20;99.90;;;;;;5028910;28;20205;-66
2022/11/08 00:49:34;;;;;;;5.78;2.50;;;6.10;99.90;;;;;;5028356;28;20221;-65
2022/11/08 00:52:01;;;;;;;3.08;2.53;;;6.20;99.90;;;;;;5028134;28;20217;-66
2022/11/08 00:54:27;;;;;;;3.20;2.30;;;6.10;99.90;;;;;;5028283;28;20235;-66
2022/11/08 00:56:54;;;;;;;3.75;2.55;;;6.10;99.90;;;;;;5028581;28;20210;-66
2022/11/08 00:59:21;;;;;;;2.47;2.20;;;6.10;99.90;;;;;;5028465;28;20233;-66
2022/11/08 01:01:47;;;;;;;2.88;2.60;;;6.10;99.90;;;;;;5027585;28;20202;-66
2022/11/08 01:04:17;;;;;;;3.17;2.47;;;6.00;99.90;;;;;;5028399;28;20209;-66
2022/11/08 01:06:45;;;;;;;3.92;2.30;;;6.00;99.90;;;;;;5028036;28;20209;-66
2022/11/08 01:09:12;;;;;;;3.60;3.10;;;6.00;99.90;;;;;;5028469;28;20202;-66
2022/11/08 01:11:44;;;;;;;2.50;2.13;;;6.00;99.90;;;;;;5027968;28;20218;-66
2022/11/08 01:14:11;;;;;;;3.92;2.60;;;6.00;99.90;;;;;;5028551;28;20262;-66
2022/11/08 01:16:37;;;;;;;3.50;1.92;;;5.90;99.90;;;;;;5027905;28;20210;-64
2022/11/08 01:19:04;;;;;;;3.05;2.58;;;5.90;99.90;;;;;;5027493;28;20748;-66
2022/11/08 01:21:31;;;;;;;2.40;2.10;;;5.90;99.90;;;;;;5027378;28;20216;-66
2022/11/08 01:23:59;;;;;;;3.35;2.20;;;5.90;99.90;;;;;;5027124;28;20198;-66
2022/11/08 01:26:28;;;;;;;2.65;2.00;;;5.80;99.90;;;;;;5027771;28;20236;-65
2022/11/08 01:28:55;;;;;;;2.90;2.10;;;5.80;99.90;;;;;;5027435;28;20891;-66
2022/11/08 01:31:24;;;;;;;2.75;2.13;;;5.80;99.90;;;;;;5027526;28;20229;-65
2022/11/08 01:33:51;;;;;;;3.03;2.13;;;5.80;99.90;;;;;;5027486;28;20309;-66
2022/11/08 01:36:20;;;;;;;2.92;2.30;;;5.70;99.90;;;;;;5027364;28;20226;-66
2022/11/08 01:38:47;;;;;;;2.67;1.80;;;5.70;99.90;;;;;;5025576;28;20206;-65
2022/11/08 01:41:16;;;;;;;2.78;2.58;;;5.70;99.90;;;;;;5026048;28;20667;-66
2022/11/08 01:43:45;;;;;;;2.78;2.35;;;5.70;99.90;;;;;;5026528;28;20232;-65
2022/11/08 01:46:44;;;;;;;2.45;2.25;;;5.70;99.90;;;;;;5027496;28;20250;-66
2022/11/08 01:49:35;;;;;;;4.45;2.17;;;5.70;99.90;;;;;;5027544;28;20208;-66
2022/11/08 01:52:12;;;;;;;2.35;1.92;;;5.60;99.90;;;;;;5026771;28;20691;-66
2022/11/08 01:54:45;;;;;;;2.95;2.10;;;5.60;99.90;;;;;;5027601;28;20225;-66
2022/11/08 01:57:17;;;;;;;2.22;2.03;;;5.60;99.90;;;;;;5027235;28;20209;-66
2022/11/08 01:59:47;;;;;;;3.42;2.35;;;5.60;99.90;;;;;;5027092;28;20602;-66
2022/11/08 02:02:15;;;;;;;2.25;2.05;;;5.50;99.90;;;;;;5026957;28;20198;-65
2022/11/08 02:04:42;;;;;;;3.53;2.58;;;5.50;99.90;;;;;;5027691;28;20224;-66
2022/11/08 02:07:12;;;;;;;2.20;2.00;;;5.50;99.90;;;;;;5027442;28;20213;-66
2022/11/08 02:09:41;;;;;;;4.07;1.92;;;5.50;99.90;;;;;;5026450;28;20226;-66
2022/11/08 02:12:09;;;;;;;2.58;2.30;;;5.50;99.90;;;;;;5026799;28;20579;-65
2022/11/08 02:14:37;;;;;;;3.08;2.42;;;5.50;99.90;;;;;;5109036;22;20221;-66
2022/11/08 02:17:05;;;;;;;2.20;2.00;;;5.50;99.90;;;;;;5067416;28;20198;-65
2022/11/08 02:19:39;;;;;;;2.53;2.30;;;5.40;99.90;;;;;;5069093;28;20276;-64
2022/11/08 02:22:13;;;;;;;2.90;1.77;;;5.40;99.90;;;;;;5071612;28;20200;-64
2022/11/08 02:24:41;;;;;;;3.67;2.25;;;5.40;99.90;;;;;;5071546;28;20228;-64
2022/11/08 02:27:09;;;;;;;2.90;2.25;;;5.40;99.90;;;;;;5072021;28;20197;-64
2022/11/08 02:29:36;;;;;;;2.85;2.53;;;5.30;99.90;;;;;;5071558;28;20564;-65
2022/11/08 02:32:04;;;;;;;3.50;3.10;;;5.30;99.90;;;;;;5071749;28;20202;-65
2022/11/08 02:34:36;;;;;;;2.05;1.95;;;5.30;99.90;;;;;;5072484;28;20618;-64
2022/11/08 02:37:03;;;;;;;3.05;2.67;;;5.30;99.90;;;;;;5072569;28;20202;-64
2022/11/08 02:39:31;;;;;;;2.72;1.98;;;5.30;99.90;;;;;;5071761;28;20213;-65
2022/11/08 02:41:59;;;;;;;4.80;2.45;;;5.30;99.90;;;;;;5071167;28;20313;-64
2022/11/08 02:44:26;;;;;;;3.13;2.67;;;5.20;99.90;;;;;;5071639;28;20737;-64
2022/11/08 02:46:53;;;;;;;2.85;2.20;;;5.20;99.90;;;;;;5071264;28;20205;-64
2022/11/08 02:49:20;;;;;;;3.03;2.08;;;5.20;99.90;;;;;;5071489;28;20208;-65
2022/11/08 02:51:47;;;;;;;2.58;2.30;;;5.10;99.90;;;;;;5070693;28;20201;-65
2022/11/08 02:54:14;;;;;;;2.70;2.22;;;5.10;99.90;;;;;;5071255;28;20220;-65
2022/11/08 02:56:41;;;;;;;2.38;2.10;;;5.00;99.90;;;;;;5070416;28;20207;-65
2022/11/08 02:59:09;;;;;;;2.72;2.53;;;5.00;99.90;;;;;;5071277;28;20701;-65
2022/11/08 03:01:35;;;;;;;2.42;2.05;;;5.10;99.90;;;;;;5070485;28;20210;-65
2022/11/08 03:04:02;;;;;;;1.92;1.73;;;5.00;99.90;;;;;;5071176;28;20202;-65
2022/11/08 03:06:29;;;;;;;1.70;1.60;;;5.00;99.90;;;;;;5070947;28;20221;-65
2022/11/08 03:08:55;;;;;;;2.25;2.05;;;5.00;99.90;;;;;;5071024;28;20594;-65
2022/11/08 03:11:22;;;;;;;2.53;2.33;;;5.00;99.90;;;;;;5070376;28;20205;-65
2022/11/08 03:13:49;;;;;;;2.20;1.73;;;5.00;99.90;;;;;;5070912;28;20209;-65
2022/11/08 03:16:17;;;;;;;2.10;1.70;;;5.00;99.90;;;;;;5070769;28;20731;-65
2022/11/08 03:18:44;;;;;;;2.95;2.10;;;4.90;99.90;;;;;;5070930;28;20198;-65
2022/11/08 03:21:11;;;;;;;2.05;1.85;;;4.90;99.90;;;;;;5070392;28;20208;-65
2022/11/08 03:23:38;;;;;;;2.10;1.90;;;4.90;99.90;;;;;;5070545;28;20668;-65
2022/11/08 03:26:05;;;;;;;2.85;1.98;;;4.90;99.90;;;;;;5070787;28;20221;-65
2022/11/08 03:28:32;;;;;;;4.03;3.13;;;4.90;99.90;;;;;;5070683;28;20202;-65
2022/11/08 03:30:59;;;;;;;3.33;2.35;;;4.80;99.90;;;;;;5070107;28;20205;-65
2022/11/08 03:33:27;;;;;;;1.90;1.80;;;4.80;99.90;;;;;;5070553;28;20214;-65
2022/11/08 03:35:54;;;;;;;1.95;1.75;;;4.80;99.90;;;;;;5070495;28;20249;-64
2022/11/08 03:38:21;;;;;;;3.00;2.28;;;4.90;99.90;;;;;;5070631;28;20579;-64
2022/11/08 03:40:48;;;;;;;3.78;1.98;;;4.80;99.90;;;;;;5069984;28;20573;-65
2022/11/08 03:43:14;;;;;;;2.28;1.95;;;4.80;99.90;;;;;;5070542;28;20560;-65
2022/11/08 03:45:41;;;;;;;4.95;2.35;;;4.80;99.90;;;;;;5070453;28;20224;-65
2022/11/08 03:48:08;;;;;;;2.25;1.75;;;4.80;99.90;;;;;;5070690;28;20311;-65
2022/11/08 03:50:36;;;;;;;3.60;2.08;;;4.80;99.90;;;;;;5069728;28;20672;-64
2022/11/08 03:53:03;;;;;;;3.17;1.80;;;4.70;99.90;;;;;;5070581;28;20201;-65
2022/11/08 03:55:30;;;;;;;2.58;2.05;;;4.70;99.90;;;;;;5070200;28;20221;-65
2022/11/08 03:57:57;;;;;;;3.53;2.30;;;4.70;99.90;;;;;;5070383;28;20664;-65
2022/11/08 04:00:26;;;;;;;3.10;1.77;;;4.70;99.90;;;;;;5069760;28;20207;-65
2022/11/08 04:02:53;;;;;;;3.63;2.20;;;4.60;99.90;;;;;;5070427;28;20202;-64
2022/11/08 04:05:20;;;;;;;3.65;2.22;;;4.60;99.90;;;;;;5070286;28;20229;-64
2022/11/08 04:07:48;;;;;;;2.85;1.92;;;4.70;99.90;;;;;;5070335;28;20664;-65
2022/11/08 04:10:16;;;;;;;2.60;2.40;;;4.70;99.90;;;;;;5073525;28;20845;-65
2022/11/08 04:15:29;;;;;;;1.98;1.70;;;4.60;99.90;;;;;;5074239;28;20232;-65
2022/11/08 04:23:29;;;;;;;2.30;2.05;;;4.60;99.90;;;;;;5073921;28;20273;-65
2022/11/08 04:25:57;;;;;;;2.65;2.10;;;4.60;99.90;;;;;;5074183;28;20217;-67
2022/11/08 04:28:25;;;;;;;2.90;2.05;;;4.60;99.90;;;;;;5074121;28;20204;-67
2022/11/08 04:30:54;;;;;;;8.82;3.10;;;4.60;99.90;;;;;;5073248;28;20198;-67
2022/11/08 04:33:20;;;;;;;2.40;2.13;;;4.60;99.90;;;;;;5073566;28;20210;-67
2022/11/08 04:35:47;;;;;;;1.67;1.58;;;4.60;99.90;;;;;;5051021;28;20275;-67
2022/11/08 04:38:15;;;;;;;2.45;1.90;;;4.60;99.90;;;;;;5038439;28;20202;-67
2022/11/08 04:40:44;;;;;;;2.22;2.10;;;4.70;99.90;;;;;;5042139;28;20196;-67
2022/11/08 04:43:10;;;;;;;1.75;1.60;;;4.60;99.90;;;;;;5041522;28;20206;-67
2022/11/08 04:45:37;;;;;;;2.30;2.03;;;4.60;99.90;;;;;;5042505;28;20217;-66
2022/11/08 04:48:04;;;;;;;2.42;2.05;;;4.60;99.90;;;;;;5043341;28;20217;-67
2022/11/08 04:50:31;;;;;;;2.65;2.08;;;4.60;99.90;;;;;;5040693;28;20205;-67
2022/11/08 04:52:58;;;;;;;2.65;2.10;;;4.50;99.90;;;;;;5034825;28;20194;-67
2022/11/08 04:55:24;;;;;;;2.20;1.92;;;4.50;99.90;;;;;;5032951;28;20222;-67
2022/11/08 04:57:57;;;;;;;2.20;1.98;;;4.50;99.90;;;;;;5043412;28;20190;-67
2022/11/08 05:00:24;;;;;;;2.40;2.20;;;4.50;99.90;;;;;;5037814;28;20203;-67
2022/11/08 05:02:51;;;;;;;2.20;1.90;;;4.40;99.90;;;;;;5037954;28;20194;-67
2022/11/08 05:05:18;;;;;;;1.70;1.55;;;4.50;99.90;;;;;;5051254;28;20218;-67
2022/11/08 05:07:44;;;;;;;2.00;1.80;;;4.40;99.90;;;;;;5053349;28;20639;-67
2022/11/08 05:10:11;;;;;;;3.90;2.08;;;4.40;99.90;;;;;;5053220;28;20201;-67
2022/11/08 05:12:38;;;;;;;2.97;2.30;;;4.40;99.90;;;;;;5052966;28;20206;-67
2022/11/08 05:15:08;;;;;;;4.00;2.03;;;4.40;99.90;;;;;;5053190;28;20603;-67
2022/11/08 05:17:34;;;;;;;4.13;2.85;;;4.40;99.90;;;;;;5053154;28;20210;-67
2022/11/08 05:25:30;;;;;;;2.70;2.50;;;4.40;99.90;;;;;;5050584;28;20261;-66
2022/11/08 05:27:57;;;;;;;2.20;1.80;;;4.40;99.90;;;;;;5046054;28;20208;-66
2022/11/08 05:30:25;;;;;;;2.25;2.05;;;4.40;99.90;;;;;;5051981;28;20199;-66
2022/11/08 05:32:52;;;;;;;9.02;2.17;;;4.40;99.90;;;;;;5053275;28;20217;-66
2022/11/08 05:35:20;;;;;;;1.75;1.52;;;4.50;99.90;;;;;;5052576;28;20226;-66
2022/11/08 05:37:47;;;;;;;2.63;2.10;;;4.50;99.90;;;;;;5052921;28;20212;-66
2022/11/08 05:40:14;;;;;;;2.65;2.22;;;4.60;99.90;;;;;;5052300;28;20209;-66
2022/11/08 05:42:40;;;;;;;2.13;1.92;;;4.70;99.90;;;;;;5052569;28;20240;-66
2022/11/08 05:45:08;;;;;;;2.28;1.90;;;4.80;99.90;;;;;;5052596;28;20218;-65
2022/11/08 05:47:36;;;;;;;2.65;2.20;;;4.90;99.90;;;;;;5052589;28;20197;-66
2022/11/08 05:50:03;;;;;;;2.15;1.95;;;5.00;99.90;;;;;;5052491;28;20198;-66
2022/11/08 05:52:30;;;;;;;2.08;1.58;;;5.00;99.90;;;;;;5051891;28;20208;-66
2022/11/08 05:54:57;;;;;;;2.40;2.20;;;4.90;99.90;;;;;;5052564;28;20233;-66
2022/11/08 05:57:24;;;;;;;2.45;2.25;;;4.90;99.90;;;;;;5052314;28;20661;-66
2022/11/08 05:59:50;;;;;;;2.15;1.95;;;4.90;99.90;;;;;;5052555;28;20202;-66
2022/11/08 06:02:17;;;;;;;3.42;2.50;;;4.90;99.90;;;;;;5051675;28;20608;-66
2022/11/08 06:04:45;;;;;;;3.05;2.35;;;4.80;99.90;;;;;;5052360;28;20592;-66
2022/11/08 06:07:12;;;;;;;2.28;1.80;;;4.90;99.90;;;;;;5052469;28;20198;-66
2022/11/08 06:09:39;;;;;;;2.95;2.20;;;4.80;99.90;;;;;;5052310;28;20210;-66
2022/11/08 06:12:06;;;;;;;2.55;2.13;;;4.80;99.90;;;;;;5051635;28;20202;-65
2022/11/08 06:14:33;;;;;;;2.28;2.05;;;4.70;99.90;;;;;;5051896;28;20226;-66
2022/11/08 06:17:00;;;;;;;2.45;2.20;;;4.80;99.90;;;;;;5052214;28;20206;-64
2022/11/08 06:19:26;;;;;;;3.60;2.63;;;4.70;99.90;;;;;;5051765;28;20201;-64
2022/11/08 06:21:54;;;;;;;2.10;1.90;;;4.80;99.90;;;;;;5051641;28;20201;-64
2022/11/08 06:24:21;;;;;;;2.83;2.10;;;4.80;99.90;;;;;;5051688;28;20202;-64
2022/11/08 06:26:48;;;;;;;3.15;2.85;;;4.70;99.90;;;;;;5052561;28;20207;-64
2022/11/08 06:29:15;;;;;;;4.07;2.25;;;4.80;99.90;;;;;;5051718;28;20199;-64
2022/11/08 06:31:41;;;;;;;2.47;2.28;;;4.70;99.90;;;;;;5050602;28;20569;-64
2022/11/08 06:34:09;;;;;;;3.42;2.50;;;4.80;99.90;;;;;;5051574;28;20198;-64
2022/11/08 06:36:35;;;;;;;3.63;2.90;;;4.80;99.90;;;;;;5051445;28;20233;-64
2022/11/08 06:39:04;;;;;;;2.92;2.72;;;4.80;99.90;;;;;;5051532;28;20593;-64
2022/11/08 06:41:31;;;;;;;3.25;2.95;;;4.80;99.90;;;;;;5051057;28;20323;-64
2022/11/08 06:43:58;;;;;;;3.90;2.78;;;4.80;99.90;;;;;;5051677;28;20249;-64
2022/11/08 06:46:25;;;;;;;3.25;2.45;;;4.80;99.90;;;;;;5051289;28;20316;-64
2022/11/08 06:48:52;;;;;;;3.90;2.20;;;4.80;99.90;;;;;;5051686;28;20206;-64
2022/11/08 06:51:19;;;;;;;5.03;2.55;;;4.80;99.90;;;;;;5050556;28;20202;-64
2022/11/08 06:53:45;;;;;;;3.20;2.42;;;4.80;99.90;;;;;;5051510;28;20202;-64
2022/11/08 06:56:14;;;;;;;3.28;2.40;;;4.90;99.90;;;;;;5051041;28;20225;-64
2022/11/08 06:58:40;;;;;;;2.63;2.40;;;4.90;99.90;;;;;;5051338;28;20678;-64
2022/11/08 07:01:09;;;;;;;2.05;1.88;;;4.90;99.90;;;;;;5050518;28;20205;-64
2022/11/08 07:03:36;;;;;;;2.85;2.33;;;5.00;99.90;;;;;;5051328;28;20206;-64
2022/11/08 07:06:04;;;;;;;2.33;2.10;;;5.10;99.90;;;;;;5050948;28;20222;-64
2022/11/08 07:08:31;;;;;;;5.00;2.78;;;5.10;99.90;;;;;;5051057;28;20298;-64
2022/11/08 07:10:58;;;;;;;3.38;2.00;;;5.20;99.90;;;;;;5050566;28;20213;-64
2022/11/08 07:13:26;;;;;;;5.03;2.67;;;5.20;99.90;;;;;;5050947;28;20210;-64
2022/11/08 07:15:57;;;;;;;2.72;2.50;;;5.30;99.90;;;;;;5051006;28;20328;-65
2022/11/08 07:18:24;;;;;;;4.38;2.97;;;5.40;99.90;;;;;;5050704;28;20247;-64
2022/11/08 07:20:52;;;;;;;2.08;1.75;;;5.50;99.90;;;;;;5050526;28;20207;-64
2022/11/08 07:23:18;;;;;;;6.97;2.90;;;5.60;99.90;;;;;;5050618;28;20202;-64
2022/11/08 07:25:45;;;;;;;3.00;2.80;;;5.70;99.90;;;;;;5051086;28;20712;-63
2022/11/08 07:28:15;;;;;;;3.15;2.33;;;5.80;99.90;;;;;;5050774;28;20206;-64
2022/11/08 07:30:44;;;;;;;5.63;2.90;;;5.90;99.90;;;;;;5050486;28;20478;-64
2022/11/08 07:33:11;;;;;;;2.60;2.40;;;6.10;99.90;;;;;;5050815;28;20459;-64
2022/11/08 07:35:39;;;;;;;2.92;2.60;;;6.50;99.90;;;;;;5050520;28;20226;-64
2022/11/08 07:38:05;;;;;;;3.08;2.60;;;6.80;99.90;;;;;;5050778;28;20275;-64
2022/11/08 07:40:33;;;;;;;3.92;2.90;;;6.90;99.90;;;;;;5050033;28;20587;-64
2022/11/08 07:43:00;;;;;;;2.42;2.22;;;6.90;99.90;;;;;;5050510;28;20212;-64
2022/11/08 07:45:27;;;;;;;2.60;2.40;;;6.90;99.90;;;;;;5050402;28;20233;-64
2022/11/08 07:48:00;;;;;;;3.40;2.47;;;6.80;99.90;;;;;;5050662;28;20204;-66
2022/11/08 07:50:27;;;;;;;7.15;2.20;;;6.80;99.90;;;;;;5049910;28;20204;-64
2022/11/08 07:52:53;;;;;;;3.75;2.60;;;6.70;99.90;;;;;;5050575;28;20587;-64
2022/11/08 07:55:20;;;;;;;3.22;2.80;;;6.70;99.90;;;;;;5050262;28;20224;-64
2022/11/08 07:57:47;;;;;;;2.45;2.25;;;6.80;99.90;;;;;;5050775;28;20201;-64
2022/11/08 08:00:15;;;;;;;3.20;2.90;;;7.00;99.90;;;;;;5049979;28;20209;-64
2022/11/08 08:02:42;;;;;;;2.90;2.38;;;7.20;99.90;;;;;;5050757;28;20206;-64
2022/11/08 08:05:10;;;;;;;4.00;2.90;;;7.50;99.90;;;;;;5050308;28;20228;-64
2022/11/08 08:07:37;;;;;;;3.53;2.50;;;7.90;99.90;;;;;;5050421;28;20212;-64
2022/11/08 08:10:05;;;;;;;2.50;2.15;;;8.30;99.90;;;;;;5050596;28;20665;-64
2022/11/08 08:12:32;;;;;;;3.85;3.00;;;8.90;99.90;;;;;;5050184;28;20219;-64
2022/11/08 08:17:36;;;;;;;2.20;2.00;;;10.00;99.90;;;;;;4315769;26;20562;-96
2022/11/08 08:20:02;;;;;;;4.40;2.60;;;10.60;99.90;;;;;;5095980;28;20195;-95
2022/11/08 08:22:31;;;;;;;3.03;2.55;;;11.30;99.90;;;;;;5096389;28;20185;-94
2022/11/08 08:24:57;;;;;;;5.30;2.63;;;12.40;99.90;;;;;;5096318;28;20186;-94
2022/11/08 08:27:24;;;;;;;2.85;2.50;;;13.40;99.90;;;;;;5096488;28;20185;-94
2022/11/08 08:29:51;;;;;;;2.63;1.90;;;14.40;99.90;;;;;;5096254;28;20200;-94
2022/11/08 08:32:18;;;;;;;4.20;2.17;;;14.90;99.90;;;;;;5096677;28;20501;-95
2022/11/08 08:34:44;;;;;;;3.33;2.00;;;15.00;99.90;;;;;;5096498;28;20439;-95
2022/11/08 08:37:14;;;;;;;3.10;1.90;;;15.20;99.90;;;;;;5109368;22;20474;-67
2022/11/08 08:39:42;;;;;;;2.17;1.90;;;15.30;99.90;;;;;;5061745;28;20466;-69
2022/11/08 08:42:10;;;;;;;2.40;1.80;;;15.60;99.90;;;;;;5064359;28;20447;-69
2022/11/08 08:44:36;;;;;;;2.47;1.73;;;16.10;99.90;;;;;;5065571;28;20478;-69
2022/11/08 08:47:03;;;;;;;2.93;1.60;;;16.40;99.90;;;;;;5064593;28;20442;-69
2022/11/08 08:49:30;;;;;;;4.30;2.13;;;16.30;99.90;;;;;;5065007;28;20462;-69
2022/11/08 08:51:56;;;;;;;1.73;1.63;;;15.70;99.90;;;;;;5051506;28;20456;-69
2022/11/08 08:54:23;;;;;;;1.97;1.77;;;15.30;99.90;;;;;;5055984;28;20463;-69
2022/11/08 08:56:53;;;;;;;1.80;1.70;;;14.70;99.90;;;;;;5063153;28;20482;-69
2022/11/08 08:59:20;;;;;;;1.50;1.40;;;14.20;99.90;;;;;;5044592;28;20487;-69
2022/11/08 09:01:46;;;;;;;2.30;2.10;;;13.90;99.90;;;;;;5056015;28;20983;-69
2022/11/08 09:04:13;;;;;;;2.00;1.80;;;13.40;99.90;;;;;;5050743;28;20456;-69
2022/11/08 09:06:40;;;;;;;1.70;1.47;;;13.20;99.90;;;;;;5057509;28;20973;-68
2022/11/08 09:09:07;;;;;;;1.90;1.30;;;12.90;99.90;;;;;;5063611;28;20885;-69
2022/11/08 09:11:33;;;;;;;1.63;1.50;;;12.80;99.90;;;;;;5068122;28;20458;-69
2022/11/08 09:14:01;;;;;;;2.70;1.80;;;12.90;99.90;;;;;;5068425;28;20459;-69
2022/11/08 09:16:28;;;;;;;1.93;1.40;;;13.50;99.90;;;;;;5066810;28;20482;-69
2022/11/08 09:18:55;;;;;;;2.77;1.27;;;14.70;99.90;;;;;;5068505;28;20536;-69
2022/11/08 09:21:22;;;;;;;2.13;1.53;;;16.30;99.90;;;;;;5067478;28;20498;-69
2022/11/08 09:23:49;;;;;;;1.70;1.30;;;17.50;99.90;;;;;;5068579;28;20827;-69
2022/11/08 09:26:16;;;;;;;1.80;1.53;;;18.30;99.90;;;;;;5048608;28;20467;-69
2022/11/08 09:28:43;;;;;;;1.73;1.40;;;18.50;99.90;;;;;;5047796;28;20456;-69
2022/11/08 09:31:12;;;;;;;1.37;1.17;;;18.60;99.90;;;;;;5066655;28;20456;-69
2022/11/08 09:33:40;;;;;;;2.00;1.30;;;18.80;99.90;;;;;;5068405;28;20451;-69
2022/11/08 09:36:08;;;;;;;1.87;1.73;;;18.20;99.90;;;;;;5057220;28;20821;-69
2022/11/08 09:38:35;;;;;;;1.27;1.17;;;17.90;99.90;;;;;;5057790;28;20470;-69
2022/11/08 09:41:36;;;;;;;2.40;1.13;;;17.50;99.90;;;;;;5054111;28;20466;-69
2022/11/08 09:44:12;;;;;;;1.77;1.20;;;17.30;99.90;;;;;;5032397;28;20462;-70
2022/11/08 09:46:48;;;;;;;1.73;1.40;;;17.10;99.90;;;;;;5060660;28;20541;-70
2022/11/08 09:49:20;;;;;;;1.50;1.40;;;16.70;99.90;;;;;;5055660;28;20459;-69
2022/11/08 09:51:48;;;;;;;1.53;1.20;;;16.20;99.90;;;;;;5058474;28;20463;-69
2022/11/08 09:54:20;;;;;;;3.40;1.80;;;15.90;99.90;;;;;;5061585;28;20456;-69
2022/11/08 09:56:47;;;;;;;1.30;1.20;;;15.90;99.90;;;;;;5059524;28;20552;-69
2022/11/08 09:59:25;;;;;;;1.57;1.47;;;16.70;99.90;;;;;;5060187;28;20805;-69
2022/11/08 10:01:53;;;;;;;2.00;1.20;;;17.40;99.90;;;;;;5057228;28;20456;-69
2022/11/08 10:04:23;;;;;;;1.13;1.00;;;17.60;99.90;;;;;;5050955;28;20466;-72
2022/11/08 10:07:05;;;;;;;1.70;1.50;;;17.40;99.90;;;;;;5057904;28;20458;-69
2022/11/08 10:09:57;;;;;;;1.60;1.30;;;16.90;99.90;;;;;;5063464;28;20482;-69
2022/11/08 10:12:32;;;;;;;2.80;1.37;;;16.40;99.90;;;;;;5058235;28;20456;-69
2022/11/08 10:15:13;;;;;;;1.87;1.30;;;15.90;99.90;;;;;;5055951;28;20481;-69
2022/11/08 10:17:57;;;;;;;1.50;1.40;;;15.40;99.90;;;;;;5060959;28;20475;-69
2022/11/08 10:20:34;;;;;;;3.50;1.77;;;15.10;99.90;;;;;;5055649;28;20459;-69
2022/11/08 10:23:12;;;;;;;1.33;1.23;;;14.90;99.90;;;;;;5053507;28;20510;-69
2022/11/08 10:25:44;;;;;;;1.20;1.10;;;14.80;99.90;;;;;;5053670;28;20479;-69
2022/11/08 10:28:50;;;;;;;1.50;1.30;;;14.70;99.90;;;;;;5060491;28;20467;-69
2022/11/08 10:31:19;;;;;;;1.60;1.50;;;14.60;99.90;;;;;;5044059;28;20467;-69
2022/11/08 10:33:50;;;;;;;1.30;1.20;;;14.60;99.90;;;;;;5047785;28;20977;-69
2022/11/08 10:36:22;;;;;;;3.10;1.50;;;14.50;99.90;;;;;;5047398;28;21411;-69
2022/11/08 10:38:56;;;;;;;2.43;1.20;;;14.40;99.90;;;;;;5047588;28;20460;-69
2022/11/08 10:41:30;;;;;;;1.40;1.20;;;14.40;99.90;;;;;;5046836;28;21219;-69
2022/11/08 10:44:03;;;;;;;1.70;1.30;;;14.30;99.90;;;;;;5047499;28;20495;-69
2022/11/08 10:46:42;;;;;;;1.47;1.37;;;14.30;99.90;;;;;;5046573;28;20998;-69
2022/11/08 10:49:20;;;;;;;2.63;1.50;;;14.40;99.90;;;;;;5046995;28;20456;-69
2022/11/08 10:51:50;;;;;;;1.50;1.23;;;14.60;99.90;;;;;;5046752;28;20459;-69
2022/11/08 10:54:42;;;;;;;1.60;1.20;;;14.70;99.90;;;;;;5047067;28;20847;-69
2022/11/08 10:57:11;;;;;;;1.80;1.27;;;15.00;99.90;;;;;;5047430;28;20476;-69
2022/11/08 10:59:38;;;;;;;1.90;1.60;;;15.20;99.90;;;;;;5047044;28;20456;-68
2022/11/08 11:02:19;;;;;;;2.40;1.53;;;15.50;99.90;;;;;;5046545;28;20455;-69
2022/11/08 11:04:47;;;;;;;1.97;1.33;;;15.60;99.90;;;;;;5047195;28;20484;-69
2022/11/08 11:07:32;;;;;;;1.70;1.20;;;15.90;99.90;;;;;;5046599;28;20453;-69
2022/11/08 11:10:21;;;;;;;2.07;1.50;;;16.30;99.90;;;;;;5047095;28;20468;-69
2022/11/08 11:12:49;;;;;;;1.53;1.37;;;16.50;99.90;;;;;;5045287;28;20456;-69
2022/11/08 11:15:16;;;;;;;2.10;1.30;;;16.60;99.90;;;;;;5046568;28;20504;-69
2022/11/08 11:17:46;;;;;;;1.87;1.40;;;16.30;99.90;;;;;;5046592;28;20488;-69
2022/11/08 11:20:24;;;;;;;1.63;1.50;;;16.20;99.90;;;;;;5046732;28;20463;-69
2022/11/08 11:22:53;;;;;;;2.10;1.47;;;16.00;99.90;;;;;;5051778;28;20485;-69
2022/11/08 11:25:22;;;;;;;1.53;1.40;;;15.90;99.90;;;;;;5061686;28;20475;-69
2022/11/08 11:27:53;;;;;;;1.67;1.57;;;15.70;99.90;;;;;;5058099;28;20821;-69
2022/11/08 11:30:28;;;;;;;1.40;1.30;;;15.50;99.90;;;;;;5043772;28;20518;-69
2022/11/08 11:33:06;;;;;;;1.77;1.37;;;15.50;99.90;;;;;;5046919;28;20455;-68
2022/11/08 11:35:42;;;;;;;2.20;1.20;;;15.70;99.90;;;;;;5046540;28;20518;-69
2022/11/08 11:38:19;;;;;;;1.40;1.20;;;15.90;99.90;;;;;;5046314;28;20476;-69
2022/11/08 11:40:47;;;;;;;1.47;1.37;;;16.10;99.90;;;;;;5044361;28;20472;-69
2022/11/08 11:43:21;;;;;;;2.07;1.70;;;16.70;99.90;;;;;;5045288;28;20456;-69
2022/11/08 11:45:54;;;;;;;2.30;1.77;;;17.60;99.90;;;;;;5045895;28;20558;-68
2022/11/08 11:48:26;;;;;;;1.67;1.30;;;18.50;99.90;;;;;;5046268;28;20471;-69
2022/11/08 11:50:54;;;;;;;1.80;1.40;;;19.30;99.90;;;;;;5045595;28;20456;-69
2022/11/08 11:53:24;;;;;;;1.80;1.27;;;19.70;99.90;;;;;;5046257;28;21031;-69
2022/11/08 11:56:26;;;;;;;1.57;1.23;;;19.80;99.90;;;;;;5046620;28;20475;-69
2022/11/08 11:59:24;;;;;;;1.93;1.60;;;20.30;99.90;;;;;;5046190;28;20475;-69
2022/11/08 12:02:15;;;;;;;1.60;1.33;;;20.60;99.90;;;;;;5040955;28;20458;-69
2022/11/08 12:04:58;;;;;;;2.90;1.63;;;20.90;99.00;;;;;;5045385;28;20480;-69
2022/11/08 12:07:28;;;;;;;2.03;1.20;;;21.20;98.70;;;;;;5045533;28;20461;-69
2022/11/08 12:10:04;;;;;;;1.30;1.20;;;21.10;97.40;;;;;;5046426;28;20461;-69
2022/11/08 12:12:45;;;;;;;1.20;1.10;;;21.00;97.90;;;;;;5045717;28;20459;-69
2022/11/08 12:15:21;;;;;;;2.17;1.47;;;20.80;97.30;;;;;;5045929;28;20508;-69
2022/11/08 12:18:14;;;;;;;2.10;1.50;;;20.50;97.40;;;;;;5046310;28;20482;-68
2022/11/08 12:20:54;;;;;;;1.50;1.20;;;20.20;97.80;;;;;;5045521;28;20909;-68
2022/11/08 12:23:51;;;;;;;1.87;1.50;;;20.20;98.10;;;;;;5046039;28;20457;-69
2022/11/08 12:26:26;;;;;;;1.43;1.23;;;20.40;99.30;;;;;;5046199;28;21117;-69
2022/11/08 12:29:14;;;;;;;1.57;1.00;;;20.50;97.80;;;;;;5045279;28;20461;-68
2022/11/08 12:31:49;;;;;;;1.50;1.20;;;20.40;97.90;;;;;;5048794;28;20463;-69
2022/11/08 12:34:21;;;;;;;1.23;1.10;;;20.50;98.50;;;;;;5050017;28;20458;-69
2022/11/08 12:37:01;;;;;;;1.03;0.93;;;20.40;97.40;;;;;;5049751;28;20479;-69
2022/11/08 12:39:35;;;;;;;1.53;1.20;;;20.40;97.50;;;;;;5048933;28;20507;-69
2022/11/08 12:42:22;;;;;;;1.27;1.17;;;20.10;97.70;;;;;;5051726;28;20828;-69
2022/11/08 12:45:19;;;;;;;3.63;3.43;;;19.60;97.60;;;;;;5052097;28;20493;-69
2022/11/08 12:47:53;;;;;;;1.40;1.30;;;19.80;99.00;;;;;;5053329;28;20455;-69
2022/11/08 12:50:27;;;;;;;1.43;1.33;;;19.80;98.60;;;;;;5053256;28;20868;-69
2022/11/08 12:53:25;;;;;;;1.60;1.30;;;19.70;98.00;;;;;;5053888;28;20457;-69
2022/11/08 12:55:56;;;;;;;1.40;1.20;;;19.50;98.60;;;;;;5019811;28;20476;-69
2022/11/08 12:58:31;;;;;;;2.53;1.63;;;19.40;98.80;;;;;;5053371;28;20488;-69
2022/11/08 13:01:03;;;;;;;1.27;1.17;;;19.10;98.40;;;;;;5052943;28;20455;-69
2022/11/08 13:04:05;;;;;;;1.60;1.20;;;18.80;99.00;;;;;;5053679;28;20570;-69
2022/11/08 13:06:41;;;;;;;1.33;1.23;;;18.50;99.50;;;;;;5046829;28;20482;-69
2022/11/08 13:09:18;;;;;;;1.80;1.70;;;18.20;99.60;;;;;;5053241;28;20466;-69
2022/11/08 13:11:57;;;;;;;1.70;1.50;;;18.20;99.90;;;;;;5048769;28;20561;-69
2022/11/08 13:14:25;;;;;;;2.30;1.50;;;18.20;99.90;;;;;;5049812;28;20830;-69
2022/11/08 13:17:14;;;;;;;1.83;1.40;;;18.20;99.90;;;;;;5048853;28;20482;-69
2022/11/08 13:19:56;;;;;;;4.20;1.37;;;18.10;99.90;;;;;;5052969;28;20457;-69
2022/11/08 13:22:58;;;;;;;1.30;1.17;;;18.10;99.90;;;;;;5067975;28;20451;-69
2022/11/08 13:25:43;;;;;;;3.17;1.40;;;18.30;99.90;;;;;;5050469;28;20480;-69
2022/11/08 13:28:43;;;;;;;1.57;1.43;;;18.20;99.90;;;;;;5057630;28;20459;-69
2022/11/08 13:31:25;;;;;;;1.40;1.27;;;18.00;99.90;;;;;;5053559;28;20454;-69
2022/11/08 13:34:03;;;;;;;1.57;1.23;;;17.70;99.90;;;;;;5066326;28;20458;-69
2022/11/08 13:36:39;;;;;;;1.30;1.20;;;17.60;99.90;;;;;;5061416;28;20863;-69